Terminal Aerodrome Forecast
Issued by NWS Jackson, MS

Home | Current Version | Previous Version | Text Only | Print | Product List | Glossary On
Versions: 1 2 3 4 5 6 7 8 9 10 11 12 13
000
FTUS44 KJAN 040500
TAFGWO
TAF
KGWO 040522Z 0406/0506 19012KT 6SM BR OVC015
     FM041000 19007KT 4SM BR OVC007
     FM041600 22011KT 2SM -RA BR OVC007
     FM041800 36013G19KT 1 1/2SM -RA BR OVC003
     FM042100 01012G18KT 1 1/2SM -RA BR OVC007
     FM050000 36014G20KT 4SM -RA BR OVC007
     FM050200 36015G22KT 4SM -RA BR OVC015=

USA.gov is the U.S. government's official web portal to all federal, state and local government web resources and services.